sensor_id;sensor_type;location;lat;lon;timestamp;pressure;altitude;pressure_sealevel;temperature;humidity
41218;BME280;26950;50.960;7.138;2023-04-01T00:01:01;98521.81;;;13.67;63.55
41218;BME280;26950;50.960;7.138;2023-04-01T00:03:29;98513.69;;;13.78;62.95
41218;BME280;26950;50.960;7.138;2023-04-01T00:05:56;98529.22;;;13.44;63.21
41218;BME280;26950;50.960;7.138;2023-04-01T00:08:24;98521.91;;;13.07;63.89
41218;BME280;26950;50.960;7.138;2023-04-01T00:10:52;98528.13;;;13.03;64.22
41218;BME280;26950;50.960;7.138;2023-04-01T00:13:18;98522.22;;;13.43;63.17
41218;BME280;26950;50.960;7.138;2023-04-01T00:15:47;98509.22;;;13.34;62.86
41218;BME280;26950;50.960;7.138;2023-04-01T00:18:14;98519.25;;;13.63;62.05
41218;BME280;26950;50.960;7.138;2023-04-01T00:20:44;98514.44;;;13.85;62.02
41218;BME280;26950;50.960;7.138;2023-04-01T00:23:10;98518.34;;;13.64;62.37
41218;BME280;26950;50.960;7.138;2023-04-01T00:25:37;98515.56;;;13.73;62.32
41218;BME280;26950;50.960;7.138;2023-04-01T00:28:03;98502.75;;;13.53;62.08
41218;BME280;26950;50.960;7.138;2023-04-01T00:30:30;98515.72;;;13.62;61.39
41218;BME280;26950;50.960;7.138;2023-04-01T00:32:58;98511.34;;;13.63;61.86
41218;BME280;26950;50.960;7.138;2023-04-01T00:35:24;98511.66;;;13.46;61.92
41218;BME280;26950;50.960;7.138;2023-04-01T00:37:51;98509.34;;;13.26;62.27
41218;BME280;26950;50.960;7.138;2023-04-01T00:40:28;98507.28;;;12.88;63.51
41218;BME280;26950;50.960;7.138;2023-04-01T00:42:55;98507.41;;;13.37;62.36
41218;BME280;26950;50.960;7.138;2023-04-01T00:45:31;98515.69;;;13.11;62.29
41218;BME280;26950;50.960;7.138;2023-04-01T00:48:02;98509.47;;;13.17;62.22
41218;BME280;26950;50.960;7.138;2023-04-01T00:50:31;98519.69;;;13.37;61.50
41218;BME280;26950;50.960;7.138;2023-04-01T00:52:59;98504.34;;;13.62;61.19
41218;BME280;26950;50.960;7.138;2023-04-01T00:55:27;98508.16;;;13.92;60.86
41218;BME280;26950;50.960;7.138;2023-04-01T00:57:57;98496.09;;;13.80;61.48
41218;BME280;26950;50.960;7.138;2023-04-01T01:00:25;98500.50;;;13.80;61.81
41218;BME280;26950;50.960;7.138;2023-04-01T01:02:52;98508.81;;;13.57;62.75
41218;BME280;26950;50.960;7.138;2023-04-01T01:05:24;98500.00;;;13.59;62.56
41218;BME280;26950;50.960;7.138;2023-04-01T01:08:01;98499.38;;;13.43;62.49
41218;BME280;26950;50.960;7.138;2023-04-01T01:10:31;98502.75;;;13.53;62.68
41218;BME280;26950;50.960;7.138;2023-04-01T01:13:04;98497.81;;;13.81;61.45
41218;BME280;26950;50.960;7.138;2023-04-01T01:15:37;98496.66;;;13.49;61.97
41218;BME280;26950;50.960;7.138;2023-04-01T01:18:16;98495.41;;;13.69;61.67
41218;BME280;26950;50.960;7.138;2023-04-01T01:21:04;98490.88;;;13.75;61.34
41218;BME280;26950;50.960;7.138;2023-04-01T01:23:56;98488.13;;;13.83;60.59
41218;BME280;26950;50.960;7.138;2023-04-01T01:30:00;98486.59;;;13.71;61.08
41218;BME280;26950;50.960;7.138;2023-04-01T01:32:48;98477.28;;;13.52;61.29
41218;BME280;26950;50.960;7.138;2023-04-01T01:35:22;98487.06;;;13.44;61.74
41218;BME280;26950;50.960;7.138;2023-04-01T01:37:53;98492.06;;;13.61;61.35
41218;BME280;26950;50.960;7.138;2023-04-01T01:40:22;98485.72;;;13.20;62.12
41218;BME280;26950;50.960;7.138;2023-04-01T01:42:52;98496.97;;;13.31;61.91
41218;BME280;26950;50.960;7.138;2023-04-01T01:45:23;98484.25;;;13.55;61.66
41218;BME280;26950;50.960;7.138;2023-04-01T01:47:51;98493.97;;;13.53;61.71
41218;BME280;26950;50.960;7.138;2023-04-01T01:50:19;98481.75;;;13.93;61.16
41218;BME280;26950;50.960;7.138;2023-04-01T01:52:47;98486.13;;;13.94;61.10
41218;BME280;26950;50.960;7.138;2023-04-01T01:55:26;98477.63;;;13.32;63.12
41218;BME280;26950;50.960;7.138;2023-04-01T01:57:54;98486.28;;;13.87;61.72
41218;BME280;26950;50.960;7.138;2023-04-01T02:00:22;98484.47;;;13.90;61.92
41218;BME280;26950;50.960;7.138;2023-04-01T02:02:49;98484.41;;;13.47;63.65
41218;BME280;26950;50.960;7.138;2023-04-01T02:05:19;98492.06;;;13.61;63.00
41218;BME280;26950;50.960;7.138;2023-04-01T02:07:50;98500.09;;;12.99;65.00
41218;BME280;26950;50.960;7.138;2023-04-01T02:10:25;98497.69;;;13.41;64.40
41218;BME280;26950;50.960;7.138;2023-04-01T02:12:53;98495.47;;;13.15;65.69
41218;BME280;26950;50.960;7.138;2023-04-01T02:15:24;98499.03;;;13.65;64.76
41218;BME280;26950;50.960;7.138;2023-04-01T02:17:56;98506.69;;;13.26;65.20
41218;BME280;26950;50.960;7.138;2023-04-01T02:20:23;98498.91;;;13.69;64.64
41218;BME280;26950;50.960;7.138;2023-04-01T02:22:53;98498.00;;;13.22;66.51
41218;BME280;26950;50.960;7.138;2023-04-01T02:25:23;98509.09;;;13.41;66.39
41218;BME280;26950;50.960;7.138;2023-04-01T02:27:51;98503.31;;;13.69;65.37
41218;BME280;26950;50.960;7.138;2023-04-01T02:30:19;98501.06;;;13.49;66.46
41218;BME280;26950;50.960;7.138;2023-04-01T02:32:48;98502.41;;;13.71;65.96
41218;BME280;26950;50.960;7.138;2023-04-01T02:35:16;98509.97;;;13.42;67.36
41218;BME280;26950;50.960;7.138;2023-04-01T02:37:45;98509.19;;;13.35;67.63
41218;BME280;26950;50.960;7.138;2023-04-01T02:40:16;98509.56;;;13.11;68.89
41218;BME280;26950;50.960;7.138;2023-04-01T02:42:43;98502.78;;;12.96;69.12
41218;BME280;26950;50.960;7.138;2023-04-01T02:45:10;98509.34;;;13.26;68.76
41218;BME280;26950;50.960;7.138;2023-04-01T02:47:37;98507.00;;;13.06;69.34
41218;BME280;26950;50.960;7.138;2023-04-01T02:50:04;98496.44;;;13.09;69.17
41218;BME280;26950;50.960;7.138;2023-04-01T02:52:31;98503.66;;;12.96;70.02
41218;BME280;26950;50.960;7.138;2023-04-01T02:54:58;98502.19;;;12.76;70.88
41218;BME280;26950;50.960;7.138;2023-04-01T02:57:26;98500.34;;;12.84;70.63
41218;BME280;26950;50.960;7.138;2023-04-01T02:59:53;98496.88;;;12.80;70.64
41218;BME280;26950;50.960;7.138;2023-04-01T03:02:19;98492.09;;;12.48;71.93
41218;BME280;26950;50.960;7.138;2023-04-01T03:04:46;98497.94;;;12.70;71.68
41218;BME280;26950;50.960;7.138;2023-04-01T03:07:13;98490.88;;;12.72;71.44
41218;BME280;26950;50.960;7.138;2023-04-01T03:09:39;98498.91;;;12.61;72.00
41218;BME280;26950;50.960;7.138;2023-04-01T03:12:06;98488.94;;;12.82;71.55
41218;BME280;26950;50.960;7.138;2023-04-01T03:14:34;98488.75;;;12.95;70.82
41218;BME280;26950;50.960;7.138;2023-04-01T03:17:00;98489.03;;;12.77;71.52
41218;BME280;26950;50.960;7.138;2023-04-01T03:19:27;98491.16;;;12.51;72.53
41218;BME280;26950;50.960;7.138;2023-04-01T03:21:53;98492.66;;;12.68;71.87
41218;BME280;26950;50.960;7.138;2023-04-01T03:24:20;98497.69;;;12.85;70.96
41218;BME280;26950;50.960;7.138;2023-04-01T03:26:46;98497.72;;;12.84;71.26
41218;BME280;26950;50.960;7.138;2023-04-01T03:29:13;98489.34;;;12.56;72.52
41218;BME280;26950;50.960;7.138;2023-04-01T03:31:42;98499.88;;;12.56;72.66
41218;BME280;26950;50.960;7.138;2023-04-01T03:34:09;98497.28;;;12.53;72.76
41218;BME280;26950;50.960;7.138;2023-04-01T03:36:35;98495.75;;;12.36;73.61
41218;BME280;26950;50.960;7.138;2023-04-01T03:39:02;98501.59;;;12.57;72.89
41218;BME280;26950;50.960;7.138;2023-04-01T03:41:29;98502.78;;;12.94;71.69
41218;BME280;26950;50.960;7.138;2023-04-01T03:43:56;98502.84;;;12.91;71.59
41218;BME280;26950;50.960;7.138;2023-04-01T03:46:23;98513.16;;;13.05;71.06
41218;BME280;26950;50.960;7.138;2023-04-01T03:48:50;98508.88;;;13.01;70.88
41218;BME280;26950;50.960;7.138;2023-04-01T03:51:17;98510.69;;;12.96;71.14
41218;BME280;26950;50.960;7.138;2023-04-01T03:53:43;98507.88;;;13.07;70.25
41218;BME280;26950;50.960;7.138;2023-04-01T03:56:10;98499.94;;;12.53;72.51
41218;BME280;26950;50.960;7.138;2023-04-01T03:58:37;98515.94;;;12.94;70.98
41218;BME280;26950;50.960;7.138;2023-04-01T04:01:13;98500.63;;;13.22;69.88
41218;BME280;26950;50.960;7.138;2023-04-01T04:03:40;98507.97;;;13.01;70.65
41218;BME280;26950;50.960;7.138;2023-04-01T04:06:11;98510.31;;;13.19;69.76
41218;BME280;26950;50.960;7.138;2023-04-01T04:08:38;98505.69;;;13.35;69.71
41218;BME280;26950;50.960;7.138;2023-04-01T04:11:05;98510.38;;;13.16;69.94
41218;BME280;26950;50.960;7.138;2023-04-01T04:13:31;98516.66;;;13.06;70.37
41218;BME280;26950;50.960;7.138;2023-04-01T04:15:58;98505.94;;;13.18;69.79
41218;BME280;26950;50.960;7.138;2023-04-01T04:18:24;98512.16;;;13.12;70.14
41218;BME280;26950;50.960;7.138;2023-04-01T04:20:51;98505.91;;;13.19;69.72
41218;BME280;26950;50.960;7.138;2023-04-01T04:23:19;98507.78;;;13.14;69.92
41218;BME280;26950;50.960;7.138;2023-04-01T04:25:53;98510.94;;;13.36;68.83
41218;BME280;26950;50.960;7.138;2023-04-01T04:28:20;98514.91;;;13.08;69.77
41218;BME280;26950;50.960;7.138;2023-04-01T04:30:47;98511.03;;;13.30;69.17
41218;BME280;26950;50.960;7.138;2023-04-01T04:33:13;98511.09;;;13.27;69.39
41218;BME280;26950;50.960;7.138;2023-04-01T04:35:40;98507.59;;;13.27;68.83
41218;BME280;26950;50.960;7.138;2023-04-01T04:38:06;98509.22;;;13.32;68.94
41218;BME280;26950;50.960;7.138;2023-04-01T04:40:35;98511.19;;;13.21;69.27
41218;BME280;26950;50.960;7.138;2023-04-01T04:43:03;98510.91;;;12.82;69.81
41218;BME280;26950;50.960;7.138;2023-04-01T04:45:29;98513.22;;;13.01;69.84
41218;BME280;26950;50.960;7.138;2023-04-01T04:47:56;98513.34;;;12.93;70.07
41218;BME280;26950;50.960;7.138;2023-04-01T04:50:23;98511.38;;;13.07;69.72
41218;BME280;26950;50.960;7.138;2023-04-01T04:52:50;98513.06;;;13.11;69.61
41218;BME280;26950;50.960;7.138;2023-04-01T04:55:16;98514.97;;;13.03;69.69
41218;BME280;26950;50.960;7.138;2023-04-01T04:57:44;98522.03;;;13.00;70.29
41218;BME280;26950;50.960;7.138;2023-04-01T05:00:11;98514.06;;;13.04;69.52
41218;BME280;26950;50.960;7.138;2023-04-01T05:02:38;98519.16;;;13.15;69.31
41218;BME280;26950;50.960;7.138;2023-04-01T05:05:05;98524.84;;;12.87;70.34
41218;BME280;26950;50.960;7.138;2023-04-01T05:07:33;98526.16;;;13.16;69.60
41218;BME280;26950;50.960;7.138;2023-04-01T05:10:00;98530.53;;;12.58;71.78
41218;BME280;26950;50.960;7.138;2023-04-01T05:12:26;98525.81;;;12.80;71.21
41218;BME280;26950;50.960;7.138;2023-04-01T05:14:54;98522.72;;;13.11;70.09
41218;BME280;26950;50.960;7.138;2023-04-01T05:17:21;98528.66;;;13.25;69.80
41218;BME280;26950;50.960;7.138;2023-04-01T05:19:47;98535.06;;;13.07;70.77
41218;BME280;26950;50.960;7.138;2023-04-01T05:22:13;98542.88;;;13.13;70.75
41218;BME280;26950;50.960;7.138;2023-04-01T05:24:40;98537.34;;;13.33;69.93
41218;BME280;26950;50.960;7.138;2023-04-01T05:27:06;98545.22;;;13.35;70.21
41218;BME280;26950;50.960;7.138;2023-04-01T05:29:33;98539.09;;;13.31;70.11
41218;BME280;26950;50.960;7.138;2023-04-01T05:32:01;98549.50;;;13.40;69.80
41218;BME280;26950;50.960;7.138;2023-04-01T05:34:28;98548.47;;;12.92;71.58
41218;BME280;26950;50.960;7.138;2023-04-01T05:36:54;98545.44;;;13.18;70.82
41218;BME280;26950;50.960;7.138;2023-04-01T05:39:20;98551.38;;;13.32;70.66
41218;BME280;26950;50.960;7.138;2023-04-01T05:41:48;98551.88;;;12.99;71.32
41218;BME280;26950;50.960;7.138;2023-04-01T05:44:15;98551.97;;;12.92;72.22
41218;BME280;26950;50.960;7.138;2023-04-01T05:46:41;98559.59;;;13.11;71.65
41218;BME280;26950;50.960;7.138;2023-04-01T05:49:09;98551.53;;;13.23;71.10
41218;BME280;26950;50.960;7.138;2023-04-01T05:51:36;98557.06;;;13.05;72.03
41218;BME280;26950;50.960;7.138;2023-04-01T05:54:04;98561.97;;;13.29;70.97
41218;BME280;26950;50.960;7.138;2023-04-01T05:56:30;98560.03;;;13.40;70.66
41218;BME280;26950;50.960;7.138;2023-04-01T05:58:57;98560.25;;;13.28;70.97
41218;BME280;26950;50.960;7.138;2023-04-01T06:01:23;98559.56;;;13.14;71.58
41218;BME280;26950;50.960;7.138;2023-04-01T06:03:50;98564.56;;;13.31;71.21
41218;BME280;26950;50.960;7.138;2023-04-01T06:06:22;98572.06;;;12.98;72.32
41218;BME280;26950;50.960;7.138;2023-04-01T06:08:49;98567.75;;;12.95;72.45
41218;BME280;26950;50.960;7.138;2023-04-01T06:11:24;98564.09;;;13.04;72.27
41218;BME280;26950;50.960;7.138;2023-04-01T06:14:06;98567.59;;;13.05;72.73
41218;BME280;26950;50.960;7.138;2023-04-01T06:16:42;98576.38;;;13.04;72.03
41218;BME280;26950;50.960;7.138;2023-04-01T06:19:18;98577.72;;;13.32;71.60
41218;BME280;26950;50.960;7.138;2023-04-01T06:22:08;98575.88;;;13.37;71.35
41218;BME280;26950;50.960;7.138;2023-04-01T06:24:50;98581.19;;;13.36;71.66
41218;BME280;26950;50.960;7.138;2023-04-01T06:27:28;98581.31;;;13.28;71.73
41218;BME280;26950;50.960;7.138;2023-04-01T06:30:10;98582.88;;;13.38;71.56
41218;BME280;26950;50.960;7.138;2023-04-01T06:33:04;98582.13;;;13.33;71.68
41218;BME280;26950;50.960;7.138;2023-04-01T06:35:48;98590.03;;;13.30;72.02
41218;BME280;26950;50.960;7.138;2023-04-01T06:41:48;98584.75;;;13.32;71.96
41218;BME280;26950;50.960;7.138;2023-04-01T06:44:29;98598.59;;;13.44;71.63
41218;BME280;26950;50.960;7.138;2023-04-01T06:47:04;98588.78;;;12.94;73.26
41218;BME280;26950;50.960;7.138;2023-04-01T06:49:46;98589.91;;;12.78;73.79
41218;BME280;26950;50.960;7.138;2023-04-01T06:52:20;98590.16;;;13.19;72.92
41218;BME280;26950;50.960;7.138;2023-04-01T06:54:54;98591.84;;;13.28;72.68
41218;BME280;26950;50.960;7.138;2023-04-01T06:57:28;98596.53;;;13.05;73.39
41218;BME280;26950;50.960;7.138;2023-04-01T06:59:58;98603.34;;;13.22;73.04
41218;BME280;26950;50.960;7.138;2023-04-01T07:02:31;98600.78;;;13.16;72.81
41218;BME280;26950;50.960;7.138;2023-04-01T07:05:00;98601.34;;;13.37;72.36
41218;BME280;26950;50.960;7.138;2023-04-01T07:07:33;98604.03;;;13.35;72.44
41218;BME280;26950;50.960;7.138;2023-04-01T07:10:06;98607.50;;;13.37;72.58
41218;BME280;26950;50.960;7.138;2023-04-01T07:12:42;98602.09;;;13.46;72.17
41218;BME280;26950;50.960;7.138;2023-04-01T07:15:17;98605.22;;;13.11;73.36
41218;BME280;26950;50.960;7.138;2023-04-01T07:17:47;98603.19;;;13.32;72.74
41218;BME280;26950;50.960;7.138;2023-04-01T07:20:18;98609.41;;;13.26;72.57
41218;BME280;26950;50.960;7.138;2023-04-01T07:22:48;98612.94;;;13.27;72.78
41218;BME280;26950;50.960;7.138;2023-04-01T07:25:19;98612.81;;;13.34;72.97
41218;BME280;26950;50.960;7.138;2023-04-01T07:27:46;98615.25;;;13.48;72.27
41218;BME280;26950;50.960;7.138;2023-04-01T07:30:14;98620.41;;;13.54;71.90
41218;BME280;26950;50.960;7.138;2023-04-01T07:32:44;98633.84;;;13.37;72.55
41218;BME280;26950;50.960;7.138;2023-04-01T07:35:20;98625.81;;;13.45;72.44
41218;BME280;26950;50.960;7.138;2023-04-01T07:37:59;98623.09;;;13.49;72.39
41218;BME280;26950;50.960;7.138;2023-04-01T07:40:37;98628.06;;;13.69;71.50
41218;BME280;26950;50.960;7.138;2023-04-01T07:43:18;98639.00;;;13.43;72.53
41218;BME280;26950;50.960;7.138;2023-04-01T07:45:54;98635.72;;;13.29;73.32
41218;BME280;26950;50.960;7.138;2023-04-01T07:48:30;98635.56;;;13.40;72.84
41218;BME280;26950;50.960;7.138;2023-04-01T07:51:01;98639.84;;;13.47;72.92
41218;BME280;26950;50.960;7.138;2023-04-01T07:53:35;98640.81;;;13.41;73.31
41218;BME280;26950;50.960;7.138;2023-04-01T07:56:06;98643.41;;;13.43;73.34
41218;BME280;26950;50.960;7.138;2023-04-01T07:58:43;98645.25;;;13.38;73.71
41218;BME280;26950;50.960;7.138;2023-04-01T08:01:18;98648.19;;;13.73;72.30
41218;BME280;26950;50.960;7.138;2023-04-01T08:04:01;98653.19;;;13.90;71.82
41218;BME280;26950;50.960;7.138;2023-04-01T08:06:37;98655.28;;;13.71;72.50
41218;BME280;26950;50.960;7.138;2023-04-01T08:09:13;98645.41;;;13.29;74.08
41218;BME280;26950;50.960;7.138;2023-04-01T08:11:50;98658.22;;;13.52;73.34
41218;BME280;26950;50.960;7.138;2023-04-01T08:14:26;98664.28;;;13.57;73.07
41218;BME280;26950;50.960;7.138;2023-04-01T08:17:02;98670.16;;;13.74;72.56
41218;BME280;26950;50.960;7.138;2023-04-01T08:19:38;98673.06;;;13.59;72.99
41218;BME280;26950;50.960;7.138;2023-04-01T08:22:11;98675.50;;;13.71;72.65
41218;BME280;26950;50.960;7.138;2023-04-01T08:24:45;98681.81;;;13.59;73.21
41218;BME280;26950;50.960;7.138;2023-04-01T08:27:16;98677.53;;;13.52;73.77
41218;BME280;26950;50.960;7.138;2023-04-01T08:29:50;98680.03;;;13.61;73.45
41218;BME280;26950;50.960;7.138;2023-04-01T08:32:23;98690.50;;;13.66;72.99
41218;BME280;26950;50.960;7.138;2023-04-01T08:35:00;98692.09;;;13.74;72.60
41218;BME280;26950;50.960;7.138;2023-04-01T08:37:30;98691.63;;;13.49;73.28
41218;BME280;26950;50.960;7.138;2023-04-01T08:40:00;98693.38;;;13.49;73.15
41218;BME280;26950;50.960;7.138;2023-04-01T08:42:57;98682.88;;;13.47;73.33
41218;BME280;26950;50.960;7.138;2023-04-01T08:45:44;98692.88;;;13.22;74.92
41218;BME280;26950;50.960;7.138;2023-04-01T08:51:27;98702.84;;;13.62;73.07
41218;BME280;26950;50.960;7.138;2023-04-01T08:54:23;98708.56;;;13.90;72.19
41218;BME280;26950;50.960;7.138;2023-04-01T08:56:58;98708.56;;;13.90;72.28
41218;BME280;26950;50.960;7.138;2023-04-01T08:59:50;98710.31;;;13.91;72.13
41218;BME280;26950;50.960;7.138;2023-04-01T09:05:36;98709.72;;;13.72;72.36
41218;BME280;26950;50.960;7.138;2023-04-01T09:08:20;98714.19;;;13.67;73.14
41218;BME280;26950;50.960;7.138;2023-04-01T09:10:57;98715.00;;;13.72;72.96
41218;BME280;26950;50.960;7.138;2023-04-01T09:16:30;98721.75;;;13.90;72.46
41218;BME280;26950;50.960;7.138;2023-04-01T09:19:20;98726.19;;;13.87;72.81
41218;BME280;26950;50.960;7.138;2023-04-01T09:22:02;98727.25;;;13.75;73.00
41218;BME280;26950;50.960;7.138;2023-04-01T09:27:44;98740.28;;;13.19;74.80
41218;BME280;26950;50.960;7.138;2023-04-01T09:30:32;98738.09;;;13.55;74.19
41218;BME280;26950;50.960;7.138;2023-04-01T09:33:27;98738.88;;;13.62;73.78
41218;BME280;26950;50.960;7.138;2023-04-01T09:36:04;98744.81;;;13.10;74.66
41218;BME280;26950;50.960;7.138;2023-04-01T09:38:44;98752.44;;;13.34;74.73
41218;BME280;26950;50.960;7.138;2023-04-01T09:41:22;98757.31;;;13.62;73.58
41218;BME280;26950;50.960;7.138;2023-04-01T09:44:00;98759.13;;;13.58;73.36
41218;BME280;26950;50.960;7.138;2023-04-01T09:46:37;98758.19;;;13.62;73.39
41218;BME280;26950;50.960;7.138;2023-04-01T09:49:31;98758.16;;;13.64;73.48
41218;BME280;26950;50.960;7.138;2023-04-01T09:52:24;98763.34;;;13.70;73.50
41218;BME280;26950;50.960;7.138;2023-04-01T09:55:01;98760.78;;;13.65;73.27
41218;BME280;26950;50.960;7.138;2023-04-01T09:58:10;98768.00;;;13.51;73.90
41218;BME280;26950;50.960;7.138;2023-04-01T10:01:28;98772.06;;;13.75;73.45
41218;BME280;26950;50.960;7.138;2023-04-01T10:13:40;98790.59;;;13.70;73.58
41218;BME280;26950;50.960;7.138;2023-04-01T10:16:22;98788.47;;;13.95;72.47
41218;BME280;26950;50.960;7.138;2023-04-01T10:19:16;98803.69;;;13.75;73.30
41218;BME280;26950;50.960;7.138;2023-04-01T10:22:15;98799.19;;;13.82;72.89
41218;BME280;26950;50.960;7.138;2023-04-01T10:25:05;98808.75;;;13.90;72.63
41218;BME280;26950;50.960;7.138;2023-04-01T10:27:51;98801.38;;;13.52;74.11
41218;BME280;26950;50.960;7.138;2023-04-01T10:33:45;98810.16;;;13.51;73.48
41218;BME280;26950;50.960;7.138;2023-04-01T10:36:32;98814.88;;;13.92;72.22
41218;BME280;26950;50.960;7.138;2023-04-01T10:39:20;98824.22;;;13.50;73.91
41218;BME280;26950;50.960;7.138;2023-04-01T10:42:25;98812.19;;;13.95;72.30
41218;BME280;26950;50.960;7.138;2023-04-01T10:45:23;98812.34;;;13.85;71.97
41218;BME280;26950;50.960;7.138;2023-04-01T10:48:12;98817.41;;;13.98;72.20
41218;BME280;26950;50.960;7.138;2023-04-01T10:51:03;98812.81;;;14.14;71.63
41218;BME280;26950;50.960;7.138;2023-04-01T10:53:38;98812.56;;;14.26;71.26
41218;BME280;26950;50.960;7.138;2023-04-01T10:56:43;98817.91;;;14.23;70.98
41218;BME280;26950;50.960;7.138;2023-04-01T11:03:09;98814.06;;;14.46;70.50
41218;BME280;26950;50.960;7.138;2023-04-01T11:06:11;98807.59;;;14.10;71.19
41218;BME280;26950;50.960;7.138;2023-04-01T11:09:43;98826.56;;;13.73;72.77
41218;BME280;26950;50.960;7.138;2023-04-01T11:15:44;98823.56;;;13.99;72.20
41218;BME280;26950;50.960;7.138;2023-04-01T11:21:46;98821.97;;;14.44;70.48
41218;BME280;26950;50.960;7.138;2023-04-01T11:24:41;98832.69;;;14.35;70.10
41218;BME280;26950;50.960;7.138;2023-04-01T11:27:25;98832.63;;;14.38;70.24
41218;BME280;26950;50.960;7.138;2023-04-01T11:30:20;98840.72;;;14.27;71.15
41218;BME280;26950;50.960;7.138;2023-04-01T11:32:54;98835.97;;;13.92;72.39
41218;BME280;26950;50.960;7.138;2023-04-01T11:35:51;98846.22;;;14.12;71.04
41218;BME280;26950;50.960;7.138;2023-04-01T11:38:39;98837.84;;;13.83;72.05
41218;BME280;26950;50.960;7.138;2023-04-01T11:41:19;98842.75;;;14.10;71.06
41218;BME280;26950;50.960;7.138;2023-04-01T11:44:00;98850.28;;;14.35;71.08
41218;BME280;26950;50.960;7.138;2023-04-01T11:46:33;98852.94;;;13.70;72.20
41218;BME280;26950;50.960;7.138;2023-04-01T11:49:21;98852.63;;;13.94;71.07
41218;BME280;26950;50.960;7.138;2023-04-01T11:51:59;98866.44;;;14.12;70.98
41218;BME280;26950;50.960;7.138;2023-04-01T11:54:44;98851.28;;;14.26;69.93
41218;BME280;26950;50.960;7.138;2023-04-01T11:57:46;98871.53;;;14.27;70.04
41218;BME280;26950;50.960;7.138;2023-04-01T12:00:34;98870.91;;;14.08;70.28
41218;BME280;26950;50.960;7.138;2023-04-01T12:03:21;98871.03;;;14.57;69.17
41218;BME280;26950;50.960;7.138;2023-04-01T12:05:54;98867.72;;;14.46;69.68
41218;BME280;26950;50.960;7.138;2023-04-01T12:08:33;98880.25;;;14.30;70.29
41218;BME280;26950;50.960;7.138;2023-04-01T12:11:09;98881.56;;;14.61;68.85
41218;BME280;26950;50.960;7.138;2023-04-01T12:13:45;98880.91;;;14.43;69.96
41218;BME280;26950;50.960;7.138;2023-04-01T12:16:29;98893.31;;;14.40;69.63
41218;BME280;26950;50.960;7.138;2023-04-01T12:19:07;98888.22;;;14.26;70.33
41218;BME280;26950;50.960;7.138;2023-04-01T12:21:37;98892.03;;;14.67;69.25
41218;BME280;26950;50.960;7.138;2023-04-01T12:24:31;98899.47;;;14.40;69.94
41218;BME280;26950;50.960;7.138;2023-04-01T12:29:57;98904.47;;;14.60;69.41
41218;BME280;26950;50.960;7.138;2023-04-01T12:32:34;98909.75;;;14.57;68.95
41218;BME280;26950;50.960;7.138;2023-04-01T12:35:17;98907.28;;;14.45;68.60
41218;BME280;26950;50.960;7.138;2023-04-01T12:37:51;98902.53;;;14.70;67.46
41218;BME280;26950;50.960;7.138;2023-04-01T12:40:31;98899.34;;;14.49;67.69
41218;BME280;26950;50.960;7.138;2023-04-01T12:46:13;98915.88;;;14.61;66.96
41218;BME280;26950;50.960;7.138;2023-04-01T12:51:48;98920.19;;;14.66;66.61
41218;BME280;26950;50.960;7.138;2023-04-01T12:57:23;98924.31;;;14.84;66.03
41218;BME280;26950;50.960;7.138;2023-04-01T13:00:14;98927.75;;;14.88;66.02
41218;BME280;26950;50.960;7.138;2023-04-01T13:02:54;98928.03;;;14.72;66.71
41218;BME280;26950;50.960;7.138;2023-04-01T13:05:45;98936.13;;;14.60;67.22
41218;BME280;26950;50.960;7.138;2023-04-01T13:08:30;98942.31;;;14.57;67.98
41218;BME280;26950;50.960;7.138;2023-04-01T13:11:20;98938.09;;;14.47;67.71
41218;BME280;26950;50.960;7.138;2023-04-01T13:14:04;98949.91;;;14.17;68.52
41218;BME280;26950;50.960;7.138;2023-04-01T13:16:38;98937.13;;;14.51;67.51
41218;BME280;26950;50.960;7.138;2023-04-01T13:19:12;98941.44;;;14.57;67.74
41218;BME280;26950;50.960;7.138;2023-04-01T13:21:50;98948.25;;;14.73;66.78
41218;BME280;26950;50.960;7.138;2023-04-01T13:24:26;98950.00;;;14.73;66.46
41218;BME280;26950;50.960;7.138;2023-04-01T13:27:01;98955.13;;;14.20;68.31
41218;BME280;26950;50.960;7.138;2023-04-01T13:29:34;98958.91;;;14.02;68.47
41218;BME280;26950;50.960;7.138;2023-04-01T13:32:11;98955.97;;;14.24;68.19
41218;BME280;26950;50.960;7.138;2023-04-01T13:34:56;98956.66;;;14.37;67.70
41218;BME280;26950;50.960;7.138;2023-04-01T13:37:36;98966.78;;;14.04;69.21
41218;BME280;26950;50.960;7.138;2023-04-01T13:40:33;98957.50;;;14.40;67.93
41218;BME280;26950;50.960;7.138;2023-04-01T13:43:04;98960.69;;;14.64;66.96
41218;BME280;26950;50.960;7.138;2023-04-01T13:45:44;98966.94;;;14.58;67.20
41218;BME280;26950;50.960;7.138;2023-04-01T13:48:29;98971.53;;;14.42;67.64
41218;BME280;26950;50.960;7.138;2023-04-01T13:51:13;98966.56;;;14.21;68.42
41218;BME280;26950;50.960;7.138;2023-04-01T13:54:09;98962.22;;;14.80;66.84
41218;BME280;26950;50.960;7.138;2023-04-01T13:56:50;98973.41;;;14.94;66.70
41218;BME280;26950;50.960;7.138;2023-04-01T13:59:39;98979.97;;;14.69;68.29
41218;BME280;26950;50.960;7.138;2023-04-01T14:02:21;98982.41;;;14.82;68.11
41218;BME280;26950;50.960;7.138;2023-04-01T14:05:07;98991.75;;;14.43;70.21
41218;BME280;26950;50.960;7.138;2023-04-01T14:07:49;98985.41;;;14.60;69.53
41218;BME280;26950;50.960;7.138;2023-04-01T14:10:22;99001.25;;;14.60;69.62
41218;BME280;26950;50.960;7.138;2023-04-01T14:12:57;98993.75;;;14.89;68.57
41218;BME280;26950;50.960;7.138;2023-04-01T14:15:35;98995.09;;;14.59;69.83
41218;BME280;26950;50.960;7.138;2023-04-01T14:18:15;98994.88;;;14.74;69.17
41218;BME280;26950;50.960;7.138;2023-04-01T14:20:50;99009.56;;;14.26;71.22
41218;BME280;26950;50.960;7.138;2023-04-01T14:23:33;99007.50;;;14.51;70.22
41218;BME280;26950;50.960;7.138;2023-04-01T14:26:22;99016.84;;;14.07;71.58
41218;BME280;26950;50.960;7.138;2023-04-01T14:28:59;99014.41;;;14.61;70.16
41218;BME280;26950;50.960;7.138;2023-04-01T14:31:36;99011.97;;;14.47;70.86
41218;BME280;26950;50.960;7.138;2023-04-01T14:34:18;99007.13;;;14.78;69.62
41218;BME280;26950;50.960;7.138;2023-04-01T14:37:17;99008.81;;;14.82;69.65